createdAt,value
2023-05-15T00:00:52.749Z,100467.72
2023-05-15T00:03:19.457Z,100461.06
2023-05-15T00:05:46.115Z,100456.22
2023-05-15T00:08:12.786Z,100456.09
2023-05-15T00:10:42.798Z,100459.44
2023-05-15T00:13:14.249Z,100448.53
2023-05-15T00:15:40.874Z,100448.25
2023-05-15T00:18:07.465Z,100444.53
2023-05-15T00:20:34.095Z,100449.84
2023-05-15T00:23:00.659Z,100446.00
2023-05-15T00:25:27.288Z,100436.03
2023-05-15T00:27:53.902Z,100441.63
2023-05-15T00:30:20.670Z,100439.97
2023-05-15T00:32:47.282Z,100432.91
2023-05-15T00:35:13.804Z,100431.50
2023-05-15T00:37:41.312Z,100430.38
2023-05-15T00:40:10.525Z,100433.84
2023-05-15T00:42:37.147Z,100425.56
2023-05-15T00:45:08.541Z,100421.97
2023-05-15T00:47:35.512Z,100412.16
2023-05-15T00:50:03.148Z,100414.38
2023-05-15T00:52:30.045Z,100411.47
2023-05-15T00:54:56.666Z,100408.88
2023-05-15T00:57:27.306Z,100403.22
2023-05-15T00:59:55.918Z,100411.06
2023-05-15T01:02:22.669Z,100406.50
2023-05-15T01:04:49.946Z,100401.34
2023-05-15T01:07:16.618Z,100407.31
2023-05-15T01:09:43.892Z,100403.88
2023-05-15T01:12:15.068Z,100400.97
2023-05-15T01:14:41.762Z,100410.72
2023-05-15T01:17:08.703Z,100406.91
2023-05-15T01:19:36.495Z,100403.84
2023-05-15T01:22:31.634Z,100409.16
2023-05-15T01:25:19.993Z,100409.19
2023-05-15T01:27:52.559Z,100408.28
2023-05-15T01:30:34.899Z,100399.13
2023-05-15T01:33:26.135Z,100407.16
2023-05-15T01:36:02.506Z,100402.63
2023-05-15T01:38:53.549Z,100389.06
2023-05-15T01:41:31.601Z,100397.63
2023-05-15T01:44:13.330Z,100398.84
2023-05-15T01:46:44.795Z,100398.66
2023-05-15T01:49:13.670Z,100392.34
2023-05-15T01:51:42.661Z,100391.38
2023-05-15T01:54:10.913Z,100389.38
2023-05-15T01:56:40.077Z,100392.19
2023-05-15T01:59:07.838Z,100386.38
2023-05-15T02:01:37.400Z,100389.66
2023-05-15T02:04:04.576Z,100394.97
2023-05-15T02:06:32.153Z,100393.47
2023-05-15T02:08:59.340Z,100392.50
2023-05-15T02:11:25.840Z,100397.16
2023-05-15T02:13:54.643Z,100391.19
2023-05-15T02:16:21.509Z,100399.16
2023-05-15T02:18:48.965Z,100402.34
2023-05-15T02:21:15.929Z,100396.06
2023-05-15T02:23:42.448Z,100399.00
2023-05-15T02:26:27.398Z,100409.16
2023-05-15T02:29:06.946Z,100403.66
2023-05-15T02:32:02.149Z,100416.06
2023-05-15T02:34:35.994Z,100415.66
2023-05-15T02:37:04.608Z,100401.91
2023-05-15T02:39:32.526Z,100398.38
2023-05-15T02:42:01.172Z,100396.53
2023-05-15T02:44:28.751Z,100410.38
2023-05-15T02:46:57.376Z,100419.78
2023-05-15T02:49:24.542Z,100415.31
2023-05-15T02:51:51.180Z,100414.81
2023-05-15T02:54:18.299Z,100413.69
2023-05-15T02:56:44.966Z,100412.91
2023-05-15T02:59:11.526Z,100411.50
2023-05-15T03:01:38.231Z,100416.84
2023-05-15T03:04:04.901Z,100412.22
2023-05-15T03:06:31.660Z,100414.81
2023-05-15T03:08:58.344Z,100410.16
2023-05-15T03:11:25.225Z,100408.59
2023-05-15T03:13:51.841Z,100400.06
2023-05-15T03:16:18.516Z,100412.38
2023-05-15T03:18:45.064Z,100407.81
2023-05-15T03:21:11.699Z,100407.88
2023-05-15T03:23:38.297Z,100401.00
2023-05-15T03:26:04.897Z,100400.94
2023-05-15T03:28:31.485Z,100397.78
2023-05-15T03:30:58.147Z,100396.56
2023-05-15T03:33:25.245Z,100405.88
2023-05-15T03:35:52.466Z,100401.88
2023-05-15T03:38:19.777Z,100402.19
2023-05-15T03:40:46.314Z,100407.25
2023-05-15T03:43:12.919Z,100406.53
2023-05-15T03:45:40.808Z,100396.47
2023-05-15T03:48:07.573Z,100399.66
2023-05-15T03:50:34.116Z,100403.31
2023-05-15T03:53:00.737Z,100416.94
2023-05-15T03:55:27.525Z,100410.19
2023-05-15T03:57:54.582Z,100410.13
2023-05-15T04:00:22.031Z,100418.53
2023-05-15T04:02:48.613Z,100411.72
2023-05-15T04:05:15.640Z,100414.00
2023-05-15T04:07:42.180Z,100411.28
2023-05-15T04:10:09.066Z,100415.94
2023-05-15T04:12:35.636Z,100408.66
2023-05-15T04:15:24.641Z,100407.53
2023-05-15T04:17:53.106Z,100403.19
2023-05-15T04:20:22.908Z,100404.72
2023-05-15T04:22:50.139Z,100404.63
2023-05-15T04:25:18.063Z,100406.94
2023-05-15T04:27:45.076Z,100406.34
2023-05-15T04:30:12.637Z,100408.22
2023-05-15T04:32:40.215Z,100407.25
2023-05-15T04:35:13.243Z,100402.53
2023-05-15T04:37:41.179Z,100408.94
2023-05-15T04:40:09.194Z,100412.69
2023-05-15T04:42:37.772Z,100404.22
2023-05-15T04:45:05.840Z,100413.53
2023-05-15T04:47:32.483Z,100407.63
2023-05-15T04:49:59.149Z,100412.06
2023-05-15T04:52:25.763Z,100411.38
2023-05-15T04:54:53.463Z,100408.22
2023-05-15T04:57:20.151Z,100414.97
2023-05-15T04:59:46.802Z,100412.31
2023-05-15T05:02:13.360Z,100419.06
2023-05-15T05:04:42.906Z,100415.41
2023-05-15T05:07:09.521Z,100426.09
2023-05-15T05:09:36.060Z,100411.78
2023-05-15T05:12:02.765Z,100410.59
2023-05-15T05:14:29.492Z,100415.66
2023-05-15T05:16:56.142Z,100411.66
2023-05-15T05:19:22.779Z,100416.66
2023-05-15T05:21:49.359Z,100417.81
2023-05-15T05:24:16.025Z,100418.03
2023-05-15T05:26:45.597Z,100416.72
2023-05-15T05:29:12.195Z,100421.09
2023-05-15T05:31:38.878Z,100412.25
2023-05-15T05:34:05.639Z,100418.00
2023-05-15T05:36:32.159Z,100431.69
2023-05-15T05:38:59.115Z,100428.69
2023-05-15T05:41:25.854Z,100427.97
2023-05-15T05:43:52.460Z,100429.59
2023-05-15T05:46:19.223Z,100424.47
2023-05-15T05:48:45.823Z,100427.09
2023-05-15T05:51:12.356Z,100426.66
2023-05-15T05:53:39.670Z,100427.72
2023-05-15T05:56:06.822Z,100423.34
2023-05-15T05:58:33.438Z,100422.41
2023-05-15T06:01:00.793Z,100421.47
2023-05-15T06:03:27.803Z,100431.53
2023-05-15T06:05:54.570Z,100429.50
2023-05-15T06:08:21.138Z,100423.38
2023-05-15T06:10:48.153Z,100426.53
2023-05-15T06:13:15.133Z,100428.34
2023-05-15T06:15:42.329Z,100435.81
2023-05-15T06:18:09.054Z,100419.78
2023-05-15T06:20:35.841Z,100427.63
2023-05-15T06:23:02.422Z,100424.88
2023-05-15T06:25:29.068Z,100426.31
2023-05-15T06:27:55.762Z,100423.31
2023-05-15T06:30:22.496Z,100421.22
2023-05-15T06:32:49.158Z,100427.81
2023-05-15T06:35:15.996Z,100425.06
2023-05-15T06:37:42.595Z,100421.94
2023-05-15T06:40:09.696Z,100432.44
2023-05-15T06:42:36.250Z,100431.53
2023-05-15T06:45:02.942Z,100428.69
2023-05-15T06:47:29.654Z,100433.75
2023-05-15T06:49:56.382Z,100438.13
2023-05-15T06:52:23.250Z,100438.38
2023-05-15T06:54:49.894Z,100454.84
2023-05-15T06:57:16.447Z,100460.16
2023-05-15T06:59:43.072Z,100458.84
2023-05-15T07:02:09.690Z,100457.59
2023-05-15T07:04:36.522Z,100464.00
2023-05-15T07:07:03.133Z,100459.50
2023-05-15T07:09:29.815Z,100462.09
2023-05-15T07:11:56.431Z,100454.28
2023-05-15T07:14:22.998Z,100460.09
2023-05-15T07:16:49.617Z,100473.75
2023-05-15T07:19:20.964Z,100469.72
2023-05-15T07:21:47.744Z,100465.97
2023-05-15T07:24:14.305Z,100464.41
2023-05-15T07:26:46.936Z,100459.59
2023-05-15T07:29:23.943Z,100464.66
2023-05-15T07:31:50.619Z,100456.16
2023-05-15T07:34:17.297Z,100456.94
2023-05-15T07:36:43.959Z,100459.75
2023-05-15T07:39:10.733Z,100466.84
2023-05-15T07:41:37.308Z,100456.78
2023-05-15T07:44:04.054Z,100460.03
2023-05-15T07:46:30.719Z,100450.50
2023-05-15T07:48:57.391Z,100448.78
2023-05-15T07:51:24.086Z,100454.28
2023-05-15T07:53:50.726Z,100454.06
2023-05-15T07:56:17.364Z,100455.13
2023-05-15T07:58:44.244Z,100451.81
2023-05-15T08:01:11.286Z,100448.66
2023-05-15T08:03:38.043Z,100444.91
2023-05-15T08:06:04.993Z,100431.03
2023-05-15T08:08:31.664Z,100438.09
2023-05-15T08:10:58.221Z,100433.59
2023-05-15T08:13:24.802Z,100433.63
2023-05-15T08:15:51.524Z,100435.47
2023-05-15T08:18:18.096Z,100434.56
2023-05-15T08:20:44.618Z,100445.03
2023-05-15T08:23:13.326Z,100439.94
2023-05-15T08:25:39.952Z,100438.34
2023-05-15T08:28:06.678Z,100428.25
2023-05-15T08:30:33.302Z,100434.94
2023-05-15T08:32:59.927Z,100424.66
2023-05-15T08:35:26.860Z,100431.78
2023-05-15T08:37:54.067Z,100436.28
2023-05-15T08:40:34.456Z,100432.22
2023-05-15T08:43:15.599Z,100428.13
2023-05-15T08:45:43.162Z,100423.75
2023-05-15T08:48:21.149Z,100423.03
2023-05-15T08:50:48.698Z,100428.19
2023-05-15T08:53:16.036Z,100430.41
2023-05-15T08:55:43.147Z,100425.00
2023-05-15T08:58:09.986Z,100433.38
2023-05-15T09:00:37.435Z,100422.59
2023-05-15T09:03:04.197Z,100415.22
2023-05-15T09:05:31.394Z,100409.78
2023-05-15T09:08:04.291Z,100407.56
2023-05-15T09:10:32.379Z,100422.22
2023-05-15T09:13:01.493Z,100423.56
2023-05-15T09:15:28.277Z,100423.03
2023-05-15T09:17:55.438Z,100426.34
2023-05-15T09:20:27.683Z,100420.66
2023-05-15T09:22:58.503Z,100417.31
2023-05-15T09:25:40.340Z,100420.47
2023-05-15T09:28:08.728Z,100420.75
2023-05-15T09:30:39.304Z,100432.69
2023-05-15T09:33:06.136Z,100430.66
2023-05-15T09:35:40.533Z,100428.78
2023-05-15T09:38:12.769Z,100424.00
2023-05-15T09:40:42.884Z,100428.50
2023-05-15T09:43:12.330Z,100433.97
2023-05-15T09:45:43.262Z,100421.38
2023-05-15T09:48:12.156Z,100428.47
2023-05-15T09:50:39.794Z,100427.75
2023-05-15T09:53:07.014Z,100432.53
2023-05-15T09:55:35.058Z,100426.22
2023-05-15T09:58:08.423Z,100421.00
2023-05-15T10:00:36.077Z,100425.00
2023-05-15T10:03:07.179Z,100432.88
2023-05-15T10:05:43.135Z,100427.91
2023-05-15T10:08:11.278Z,100421.59
2023-05-15T10:10:38.342Z,100417.06
2023-05-15T10:13:07.806Z,100423.34
2023-05-15T10:15:34.889Z,100417.84
2023-05-15T10:18:04.502Z,100416.94
2023-05-15T10:20:35.450Z,100424.81
2023-05-15T10:23:04.771Z,100417.59
2023-05-15T10:25:43.991Z,100413.75
2023-05-15T10:28:12.057Z,100415.50
2023-05-15T10:30:38.905Z,100414.81
2023-05-15T10:33:08.012Z,100408.53
2023-05-15T10:35:36.341Z,100407.81
2023-05-15T10:38:06.698Z,100401.69
2023-05-15T10:40:36.584Z,100402.44
2023-05-15T10:43:04.862Z,100405.50
2023-05-15T10:45:32.328Z,100397.81
2023-05-15T10:48:00.033Z,100402.56
2023-05-15T10:50:27.327Z,100390.38
2023-05-15T10:52:55.809Z,100389.09
2023-05-15T10:55:22.976Z,100393.00
2023-05-15T10:57:49.748Z,100392.03
2023-05-15T11:00:22.446Z,100383.88
2023-05-15T11:02:50.771Z,100390.38
2023-05-15T11:05:17.463Z,100386.72
2023-05-15T11:07:44.138Z,100387.09
2023-05-15T11:10:36.447Z,100386.78
2023-05-15T11:13:04.380Z,100387.91
2023-05-15T11:15:44.871Z,100380.22
2023-05-15T11:18:11.887Z,100381.25
2023-05-15T11:20:58.661Z,100378.09
2023-05-15T11:23:25.507Z,100376.94
2023-05-15T11:25:58.695Z,100374.94
2023-05-15T11:28:29.219Z,100379.09
2023-05-15T11:31:07.884Z,100370.63
2023-05-15T11:33:34.618Z,100365.78
2023-05-15T11:36:04.507Z,100360.56
2023-05-15T11:38:38.496Z,100357.06
2023-05-15T11:41:17.667Z,100363.41
2023-05-15T11:43:44.639Z,100355.22
2023-05-15T11:46:14.198Z,100361.53
2023-05-15T11:48:43.324Z,100354.56
2023-05-15T11:51:25.734Z,100362.09
2023-05-15T11:53:55.335Z,100359.75
2023-05-15T11:56:25.739Z,100352.75
2023-05-15T11:58:56.872Z,100347.72
2023-05-15T12:01:23.908Z,100351.03
2023-05-15T12:03:52.025Z,100353.72
2023-05-15T12:06:19.016Z,100349.38
2023-05-15T12:08:53.128Z,100344.69
2023-05-15T12:11:24.757Z,100349.72
2023-05-15T12:13:54.160Z,100334.00
2023-05-15T12:16:28.403Z,100332.63
2023-05-15T12:18:58.311Z,100338.34
2023-05-15T12:21:27.946Z,100338.28
2023-05-15T12:24:07.165Z,100345.19
2023-05-15T12:26:35.726Z,100336.41
2023-05-15T12:29:03.480Z,100337.41
2023-05-15T12:31:30.382Z,100338.03
2023-05-15T12:33:57.305Z,100336.06
2023-05-15T12:36:24.053Z,100336.41
2023-05-15T12:38:51.265Z,100331.81
2023-05-15T12:41:19.896Z,100333.06
2023-05-15T12:43:46.593Z,100331.81
2023-05-15T12:50:51.496Z,100332.72
2023-05-15T12:53:18.128Z,100332.44
2023-05-15T12:55:46.456Z,100334.31
2023-05-15T12:58:15.650Z,100339.47
2023-05-15T13:00:43.419Z,100334.44
2023-05-15T13:03:12.069Z,100336.03
2023-05-15T13:05:41.952Z,100333.31
2023-05-15T13:08:08.507Z,100334.47
2023-05-15T13:10:37.687Z,100342.09
2023-05-15T13:13:04.432Z,100339.59
2023-05-15T13:15:43.934Z,100332.63
2023-05-15T13:18:16.023Z,100322.44
2023-05-15T13:20:42.727Z,100331.81
2023-05-15T13:23:11.764Z,100334.31
2023-05-15T13:25:38.789Z,100328.63
2023-05-15T13:28:06.710Z,100333.59
2023-05-15T13:30:34.520Z,100323.19
2023-05-15T13:33:02.094Z,100332.50
2023-05-15T13:35:28.940Z,100322.00
2023-05-15T13:37:56.627Z,100323.13
2023-05-15T13:40:23.828Z,100315.28
2023-05-15T13:42:50.771Z,100310.50
2023-05-15T13:45:17.467Z,100310.78
2023-05-15T13:47:44.951Z,100310.03
2023-05-15T13:50:16.132Z,100313.91
2023-05-15T13:52:44.793Z,100310.41
2023-05-15T13:55:11.937Z,100311.16
2023-05-15T13:57:43.147Z,100309.22
2023-05-15T14:00:12.790Z,100309.22
2023-05-15T14:02:40.894Z,100310.38
2023-05-15T14:05:08.317Z,100313.84
2023-05-15T14:07:35.042Z,100314.50
2023-05-15T14:10:02.118Z,100312.75
2023-05-15T14:12:28.859Z,100319.66
2023-05-15T14:14:55.597Z,100320.63
2023-05-15T14:17:23.256Z,100327.53
2023-05-15T14:19:49.926Z,100327.84
2023-05-15T14:22:16.513Z,100333.84
2023-05-15T14:24:43.182Z,100338.97
2023-05-15T14:27:09.829Z,100332.63
2023-05-15T14:29:36.693Z,100332.44
2023-05-15T14:32:03.359Z,100343.75
2023-05-15T14:34:30.208Z,100339.53
2023-05-15T14:36:56.706Z,100338.56
2023-05-15T14:39:23.387Z,100345.66
2023-05-15T14:41:50.370Z,100337.97
2023-05-15T14:44:17.123Z,100341.75
2023-05-15T14:46:44.190Z,100342.22
2023-05-15T14:49:10.983Z,100337.00
2023-05-15T14:51:37.910Z,100341.78
2023-05-15T14:54:05.000Z,100334.47
2023-05-15T14:56:32.167Z,100340.34
2023-05-15T14:58:58.807Z,100340.19
2023-05-15T15:01:25.789Z,100347.56
2023-05-15T15:03:52.917Z,100341.22
2023-05-15T15:06:19.745Z,100350.06
2023-05-15T15:08:46.383Z,100349.69
2023-05-15T15:11:12.987Z,100348.53
2023-05-15T15:13:39.580Z,100355.91
2023-05-15T15:16:08.171Z,100354.75
2023-05-15T15:18:35.148Z,100353.47
2023-05-15T15:21:02.012Z,100359.34
2023-05-15T15:23:28.639Z,100356.72
2023-05-15T15:25:55.220Z,100353.94
2023-05-15T15:28:21.770Z,100348.75
2023-05-15T15:30:48.406Z,100349.22
2023-05-15T15:33:15.133Z,100345.16
2023-05-15T15:35:41.781Z,100352.91
2023-05-15T15:38:11.381Z,100346.75
2023-05-15T15:40:37.899Z,100356.38
2023-05-15T15:43:04.762Z,100363.56
2023-05-15T15:45:31.410Z,100350.72
2023-05-15T15:47:58.101Z,100355.72
2023-05-15T15:50:24.862Z,100347.19
2023-05-15T15:52:51.720Z,100347.69
2023-05-15T15:55:18.358Z,100351.28
2023-05-15T15:57:45.121Z,100355.59
2023-05-15T16:00:12.707Z,100363.06
2023-05-15T16:02:40.689Z,100358.81
2023-05-15T16:05:07.809Z,100360.66
2023-05-15T16:07:34.834Z,100361.00
2023-05-15T16:10:11.402Z,100363.78
2023-05-15T16:12:40.725Z,100368.06
2023-05-15T16:15:21.561Z,100363.72
2023-05-15T16:17:52.312Z,100372.75
2023-05-15T16:20:19.547Z,100365.47
2023-05-15T16:22:46.188Z,100369.56
2023-05-15T16:25:12.890Z,100369.63
2023-05-15T16:27:39.552Z,100375.19
2023-05-15T16:30:06.765Z,100376.91
2023-05-15T16:32:34.035Z,100372.09
2023-05-15T16:35:00.884Z,100378.09
2023-05-15T16:37:27.578Z,100367.53
2023-05-15T16:39:54.173Z,100368.84
2023-05-15T16:42:20.827Z,100368.91
2023-05-15T16:44:47.422Z,100376.78
2023-05-15T16:47:14.116Z,100372.59
2023-05-15T16:49:44.036Z,100382.44
2023-05-15T16:52:11.231Z,100374.25
2023-05-15T16:54:37.915Z,100371.94
2023-05-15T16:57:05.011Z,100376.44
2023-05-15T16:59:31.683Z,100391.09
2023-05-15T17:01:59.274Z,100382.59
2023-05-15T17:04:25.935Z,100392.13
2023-05-15T17:06:53.403Z,100398.13
2023-05-15T17:09:21.140Z,100396.78
2023-05-15T17:11:47.880Z,100395.75
2023-05-15T17:14:14.563Z,100400.78
2023-05-15T17:16:41.205Z,100399.63
2023-05-15T17:19:08.269Z,100391.97
2023-05-15T17:21:37.205Z,100403.00
2023-05-15T17:24:03.964Z,100408.84
2023-05-15T17:26:30.554Z,100412.97
2023-05-15T17:28:57.052Z,100409.44
2023-05-15T17:31:23.870Z,100408.13
2023-05-15T17:33:50.713Z,100412.31
2023-05-15T17:36:17.647Z,100416.31
2023-05-15T17:38:44.528Z,100418.47
2023-05-15T17:41:11.246Z,100416.31
2023-05-15T17:43:37.798Z,100415.28
2023-05-15T17:46:05.549Z,100420.50
2023-05-15T17:48:33.446Z,100423.81
2023-05-15T17:51:00.394Z,100431.84
2023-05-15T17:53:27.070Z,100440.38
2023-05-15T17:55:53.769Z,100446.88
2023-05-15T17:58:21.221Z,100438.72
2023-05-15T18:00:48.021Z,100445.38
2023-05-15T18:03:14.758Z,100449.41
2023-05-15T18:05:41.583Z,100462.38
2023-05-15T18:08:08.142Z,100461.56
2023-05-15T18:10:34.828Z,100466.78
2023-05-15T18:13:01.405Z,100468.22
2023-05-15T18:15:28.236Z,100470.28
2023-05-15T18:17:55.034Z,100474.44
2023-05-15T18:20:21.833Z,100473.13
2023-05-15T18:22:49.504Z,100478.28
2023-05-15T18:25:16.298Z,100476.38
2023-05-15T18:27:42.979Z,100483.38
2023-05-15T18:30:09.961Z,100494.53
2023-05-15T18:32:36.659Z,100485.63
2023-05-15T18:35:03.746Z,100492.19
2023-05-15T18:37:30.510Z,100502.66
2023-05-15T18:39:58.625Z,100498.66
2023-05-15T18:42:26.073Z,100498.78
2023-05-15T18:44:52.859Z,100500.09
2023-05-15T18:47:19.504Z,100502.47
2023-05-15T18:49:46.737Z,100498.03
2023-05-15T18:52:13.403Z,100509.72
2023-05-15T18:54:41.433Z,100508.91
2023-05-15T18:57:08.282Z,100519.69
2023-05-15T18:59:35.024Z,100506.63
2023-05-15T19:02:01.806Z,100512.84
2023-05-15T19:04:28.425Z,100512.56
2023-05-15T19:06:54.949Z,100518.56
2023-05-15T19:09:21.559Z,100521.13
2023-05-15T19:11:51.596Z,100534.69
2023-05-15T19:14:18.564Z,100531.59
2023-05-15T19:16:46.082Z,100539.47
2023-05-15T19:19:13.354Z,100541.53
2023-05-15T19:21:40.030Z,100532.03
2023-05-15T19:24:07.032Z,100537.31
2023-05-15T19:26:33.742Z,100536.72
2023-05-15T19:29:00.445Z,100545.75
2023-05-15T19:31:31.553Z,100549.00
2023-05-15T19:33:59.104Z,100543.56
2023-05-15T19:36:25.798Z,100555.91
2023-05-15T19:38:52.789Z,100545.28
2023-05-15T19:41:19.363Z,100553.53
2023-05-15T19:43:46.948Z,100559.03
2023-05-15T19:46:13.749Z,100556.13
2023-05-15T19:48:40.600Z,100554.56
2023-05-15T19:51:07.291Z,100556.09
2023-05-15T19:53:34.349Z,100562.91
2023-05-15T19:56:00.958Z,100564.72
2023-05-15T19:58:27.800Z,100560.81
2023-05-15T20:00:54.636Z,100577.03
2023-05-15T20:03:22.137Z,100570.66
2023-05-15T20:05:48.852Z,100571.16
2023-05-15T20:08:17.011Z,100577.00
2023-05-15T20:10:44.404Z,100578.94
2023-05-15T20:13:11.515Z,100583.22
2023-05-15T20:15:39.768Z,100578.94
2023-05-15T20:18:07.232Z,100589.63
2023-05-15T20:20:35.676Z,100582.63
2023-05-15T20:23:02.275Z,100591.31
2023-05-15T20:25:29.606Z,100593.81
2023-05-15T20:27:58.437Z,100593.91
2023-05-15T20:30:25.402Z,100592.75
2023-05-15T20:32:52.256Z,100599.22
2023-05-15T20:35:19.588Z,100598.06
2023-05-15T20:37:46.209Z,100592.69
2023-05-15T20:40:13.043Z,100604.81
2023-05-15T20:42:39.959Z,100608.59
2023-05-15T20:45:08.507Z,100606.28
2023-05-15T20:47:35.787Z,100607.66
2023-05-15T20:50:02.362Z,100601.78
2023-05-15T20:52:28.901Z,100598.97
2023-05-15T20:54:55.385Z,100598.38
2023-05-15T20:57:22.356Z,100605.91
2023-05-15T20:59:48.881Z,100597.41
2023-05-15T21:02:15.926Z,100595.97
2023-05-15T21:04:42.921Z,100595.03
2023-05-15T21:07:09.865Z,100594.13
2023-05-15T21:09:36.401Z,100598.94
2023-05-15T21:12:03.838Z,100587.50
2023-05-15T21:14:30.612Z,100593.75
2023-05-15T21:16:57.548Z,100595.97
2023-05-15T21:19:24.245Z,100590.00
2023-05-15T21:21:51.007Z,100598.03
2023-05-15T21:24:17.742Z,100606.09
2023-05-15T21:26:44.316Z,100606.66
2023-05-15T21:29:11.152Z,100596.97
2023-05-15T21:31:37.780Z,100601.72
2023-05-15T21:34:04.362Z,100598.47
2023-05-15T21:36:31.277Z,100602.00
2023-05-15T21:38:57.890Z,100598.31
2023-05-15T21:41:25.873Z,100601.72
2023-05-15T21:43:52.529Z,100599.63
2023-05-15T21:46:19.250Z,100596.81
2023-05-15T21:48:46.438Z,100605.00
2023-05-15T21:51:13.005Z,100608.63
2023-05-15T21:53:39.682Z,100597.41
2023-05-15T21:56:06.718Z,100600.69
2023-05-15T21:58:33.252Z,100606.63
2023-05-15T22:00:59.916Z,100613.72
2023-05-15T22:03:26.881Z,100612.97
2023-05-15T22:05:53.710Z,100611.13
2023-05-15T22:08:21.060Z,100606.16
2023-05-15T22:10:48.325Z,100611.31
2023-05-15T22:13:15.362Z,100610.34
2023-05-15T22:15:42.098Z,100620.25
2023-05-15T22:18:08.772Z,100604.38
2023-05-15T22:20:36.050Z,100616.91
2023-05-15T22:23:02.807Z,100613.72
2023-05-15T22:25:29.416Z,100617.81
2023-05-15T22:27:56.012Z,100627.28
2023-05-15T22:30:22.787Z,100630.84
2023-05-15T22:32:49.299Z,100624.28
2023-05-15T22:35:15.984Z,100630.06
2023-05-15T22:37:42.631Z,100634.97
2023-05-15T22:40:10.499Z,100636.72
2023-05-15T22:42:37.328Z,100640.88
2023-05-15T22:45:05.829Z,100645.53
2023-05-15T22:47:32.959Z,100650.06
2023-05-15T22:49:59.615Z,100643.88
2023-05-15T22:52:26.326Z,100647.44
2023-05-15T22:54:52.940Z,100655.81
2023-05-15T22:57:19.554Z,100657.50
2023-05-15T22:59:46.626Z,100659.34
2023-05-15T23:02:13.156Z,100663.53
2023-05-15T23:04:39.879Z,100668.28
2023-05-15T23:09:33.674Z,100671.91
2023-05-15T23:12:00.595Z,100665.09
2023-05-15T23:14:27.199Z,100665.75
2023-05-15T23:16:53.710Z,100664.16
2023-05-15T23:19:20.696Z,100672.78
2023-05-15T23:21:47.512Z,100677.75
2023-05-15T23:24:14.120Z,100674.94
2023-05-15T23:26:40.639Z,100668.03
2023-05-15T23:29:07.249Z,100684.16
2023-05-15T23:31:34.089Z,100683.25
2023-05-15T23:34:00.869Z,100674.53
2023-05-15T23:36:27.479Z,100683.22
2023-05-15T23:38:54.266Z,100680.75
2023-05-15T23:41:21.913Z,100683.03
2023-05-15T23:43:50.402Z,100685.03
2023-05-15T23:46:17.605Z,100692.59
2023-05-15T23:48:44.345Z,100681.91
2023-05-15T23:51:11.205Z,100688.16
2023-05-15T23:53:37.793Z,100683.97
2023-05-15T23:56:04.667Z,100694.31
2023-05-15T23:58:31.219Z,100701.34
